Station Historical Data
Daily Summary for March 28, 2017 Units:  Both    English   Metric
« Previous Day
Next Day »
Daily Weekly Monthly Yearly Custom
  High: Low: Average:
Temperature: 77.2 °F /  25.1 °C 61.9 °F /  16.6 °C 69.7 °F /  20.9 °C
Dew Point: 59.8 °F /  15.4 °C 54.3 °F /  12.4 °C 57 °F /  13.9 °C
Humidity: 79% 52% 65%
Wind Speed: 2.0mph /  3.2km/h - 0.2mph /  0.3km/h
Wind Gust: 6.0mph /  9.7km/h - -
Wind- - SW
Pressure: 30.01 in /  1016.1 hPa 29.94 in /  1013.8 hPa -
Precipitation: 0.07 in /  1.78 mm    
Historical Graphs
 
 
Tabular Data for March 28, 2017
Time Temperature Dew Point Pressure Wind Wind Speed Wind Gust Humidity Rainfall Rate (Hourly) solar Conditions
16:45 77.1 °F /  25.1 °C 59.2 °F /  15.1 °C 29.95in /  1014.1hPa Calm   5.0mph /  8km/h 54% 0.00in /  0mm 0.0 W/m2 SCT
17:00 77.0 °F /  25 °C 58.6 °F /  14.8 °C 29.94in /  1013.8hPa ENE 2.0mph /  3.2km/h 5.0mph /  8km/h 53% 0.00in /  0mm 0.0 W/m2 SCT
17:15 77.2 °F /  25.1 °C 59.8 °F /  15.4 °C 29.94in /  1013.8hPa Calm   3.0mph /  4.8km/h 55% 0.00in /  0mm 0.0 W/m2 SCT
17:30 77.0 °F /  25 °C 59.1 °F /  15.1 °C 29.94in /  1013.8hPa Calm   3.0mph /  4.8km/h 54% 0.00in /  0mm 0.0 W/m2 SCT
17:45 76.8 °F /  24.9 °C 58.4 °F /  14.7 °C 29.94in /  1013.8hPa NW 1.0mph /  1.6km/h 3.0mph /  4.8km/h 53% 0.00in /  0mm 0.0 W/m2 SCT
18:00 76.2 °F /  24.6 °C 57.3 °F /  14.1 °C 29.94in /  1013.8hPa WSW 1.0mph /  1.6km/h 5.0mph /  8km/h 52% 0.00in /  0mm 0.0 W/m2 SCT
18:15 76.4 °F /  24.7 °C 58.0 °F /  14.4 °C 29.94in /  1013.8hPa Calm   6.0mph /  9.7km/h 53% 0.00in /  0mm 0.0 W/m2 SCT
18:30 75.9 °F /  24.4 °C 57.5 °F /  14.2 °C 29.94in /  1013.8hPa Calm   6.0mph /  9.7km/h 53% 0.00in /  0mm 0.0 W/m2 SCT
18:45 75.3 °F /  24.1 °C 57.5 °F /  14.2 °C 29.94in /  1013.8hPa ESE 1.0mph /  1.6km/h 5.0mph /  8km/h 54% 0.00in /  0mm 0.0 W/m2 SCT
19:00 74.6 °F /  23.7 °C 57.9 °F /  14.4 °C 29.95in /  1014.1hPa NW 1.0mph /  1.6km/h 3.0mph /  4.8km/h 56% 0.00in /  0mm 0.0 W/m2 SCT
19:30 73.4 °F /  23 °C 57.3 °F /  14.1 °C 29.96in /  1014.4hPa Calm   2.0mph /  3.2km/h 57% 0.00in /  0mm 0.0 W/m2 SCT
19:45 72.1 °F /  22.3 °C 56.9 °F /  13.8 °C 29.96in /  1014.4hPa Calm     59% 0.00in /  0mm 0.0 W/m2 SCT
20:00 70.9 °F /  21.6 °C 57.7 °F /  14.3 °C 29.97in /  1014.8hPa Calm     63% 0.00in /  0mm 0.0 W/m2 SCT
20:15 69.6 °F /  20.9 °C 57.3 °F /  14.1 °C 29.97in /  1014.8hPa Calm     65% 0.00in /  0mm 0.0 W/m2 SCT
20:30 68.6 °F /  20.3 °C 57.2 °F /  14 °C 29.97in /  1014.8hPa Calm     67% 0.00in /  0mm 0.0 W/m2 SCT
20:45 67.7 °F /  19.8 °C 57.1 °F /  13.9 °C 29.97in /  1014.8hPa Calm     69% 0.00in /  0mm 0.0 W/m2 SCT
21:00 66.9 °F /  19.4 °C 57.2 °F /  14 °C 29.98in /  1015.1hPa Calm     71% 0.00in /  0mm 0.0 W/m2 SCT
21:15 66.1 °F /  18.9 °C 56.8 °F /  13.8 °C 29.98in /  1015.1hPa Calm     72% 0.00in /  0mm 0.0 W/m2 SCT
21:30 65.3 °F /  18.5 °C 56.0 °F /  13.3 °C 29.99in /  1015.5hPa Calm     72% 0.00in /  0mm 0.0 W/m2 SCT
21:45 64.6 °F /  18.1 °C 56.1 °F /  13.4 °C 29.99in /  1015.5hPa Calm     74% 0.00in /  0mm 0.0 W/m2 SCT
22:00 64.6 °F /  18.1 °C 56.1 °F /  13.4 °C 30.00in /  1015.8hPa Calm     74% 0.00in /  0mm 0.0 W/m2 SCT
22:15 64.0 °F /  17.8 °C 55.9 °F /  13.3 °C 30.00in /  1015.8hPa Calm     75% 0.00in /  0mm 0.0 W/m2 SCT
22:30 63.2 °F /  17.3 °C 55.9 °F /  13.3 °C 30.00in /  1015.8hPa Calm     77% 0.00in /  0mm 0.0 W/m2 SCT
22:45 62.6 °F /  17 °C 56.0 °F /  13.3 °C 30.01in /  1016.1hPa Calm     79% 0.00in /  0mm 0.0 W/m2 SCT
23:00 62.5 °F /  16.9 °C 55.5 °F /  13.1 °C 30.01in /  1016.1hPa Calm     78% 0.00in /  0mm 0.0 W/m2 SCT
23:15 61.9 °F /  16.6 °C 55.0 °F /  12.8 °C 30.01in /  1016.1hPa Calm     78% 0.00in /  0mm 0.0 W/m2 SCT
23:30 62.0 °F /  16.7 °C 55.1 °F /  12.8 °C 30.01in /  1016.1hPa Calm     78% 0.00in /  0mm 0.0 W/m2 SCT
23:45 62.3 °F /  16.8 °C 54.3 °F /  12.4 °C 30.01in /  1016.1hPa Calm     75% 0.00in /  0mm 0.0 W/m2 SCT
Piedmont Bend
Compliments of Weather Underground - 4 mb